Time;durP1;ratioP1;P1;durP2;ratioP2;P2;SDS_P1;SDS_P2;PMS_P1;PMS_P2;Temp;Humidity;BMP_temperature;BMP_pressure;BME280_temperature;BME280_humidity;BME280_pressure;Samples;Min_cycle;Max_cycle;Signal;HPM_P1;HPM_P2
2023/09/28 00:01:17;;;;;;;18.98;17.17;;;18.50;85.80;;;;;;5178179;27;20054;-81
2023/09/28 00:03:43;;;;;;;17.90;16.10;;;18.50;85.80;;;;;;5177422;27;20037;-82
2023/09/28 00:06:09;;;;;;;18.50;16.45;;;18.50;85.80;;;;;;5177619;27;20062;-81
2023/09/28 00:08:35;;;;;;;19.08;17.20;;;18.50;85.90;;;;;;5145664;27;20343;-81
2023/09/28 00:11:00;;;;;;;17.80;16.10;;;18.50;85.70;;;;;;5161990;27;20105;-80
2023/09/28 00:13:26;;;;;;;18.20;16.27;;;18.50;85.70;;;;;;5142875;27;20042;-84
2023/09/28 00:15:52;;;;;;;18.92;15.85;;;18.50;85.80;;;;;;5139118;27;20035;-83
2023/09/28 00:18:18;;;;;;;18.00;16.20;;;18.40;85.90;;;;;;5131949;27;20042;-81
2023/09/28 00:20:44;;;;;;;18.40;15.93;;;18.40;86.00;;;;;;5145623;27;20035;-81
2023/09/28 00:23:10;;;;;;;17.77;15.85;;;18.50;86.00;;;;;;5119540;27;20531;-81
2023/09/28 00:25:36;;;;;;;17.15;15.35;;;18.40;86.00;;;;;;5122678;27;20070;-82
2023/09/28 00:28:02;;;;;;;16.95;15.25;;;18.40;85.90;;;;;;5139054;27;20143;-82
2023/09/28 00:30:27;;;;;;;16.83;15.05;;;18.40;85.90;;;;;;5136788;27;20034;-81
2023/09/28 00:32:54;;;;;;;18.33;15.80;;;18.40;85.80;;;;;;5102333;27;20045;-81
2023/09/28 00:35:21;;;;;;;17.05;15.25;;;18.40;85.80;;;;;;5153917;27;20048;-80
2023/09/28 00:37:48;;;;;;;16.85;15.10;;;18.40;85.80;;;;;;5136696;27;20035;-82
2023/09/28 00:40:31;;;;;;;17.55;15.02;;;18.40;86.00;;;;;;5119665;27;20039;-82
2023/09/28 00:42:58;;;;;;;16.55;14.82;;;18.40;85.70;;;;;;5121883;27;20046;-81
2023/09/28 00:45:25;;;;;;;16.75;14.02;;;18.40;85.70;;;;;;5153496;27;20041;-79
2023/09/28 00:47:53;;;;;;;19.00;14.85;;;18.30;85.90;;;;;;5136121;27;20038;-80
2023/09/28 00:50:20;;;;;;;17.92;14.80;;;18.40;85.80;;;;;;5136369;27;20043;-81
2023/09/28 00:52:59;;;;;;;15.40;13.90;;;18.40;85.70;;;;;;5136100;27;20042;-82
2023/09/28 00:55:27;;;;;;;16.15;13.32;;;18.30;85.80;;;;;;5119392;27;20042;-80
2023/09/28 00:57:58;;;;;;;16.85;13.65;;;18.30;85.70;;;;;;5119097;27;20039;-81
2023/09/28 01:00:31;;;;;;;14.35;12.95;;;18.30;85.70;;;;;;5153300;27;20039;-80
2023/09/28 01:03:02;;;;;;;13.43;12.13;;;18.40;85.60;;;;;;5121316;27;20050;-81
2023/09/28 01:05:33;;;;;;;14.05;12.55;;;18.40;85.60;;;;;;5136251;27;20031;-82
2023/09/28 01:08:14;;;;;;;13.95;12.52;;;18.40;85.70;;;;;;5153259;27;20098;-81
2023/09/28 01:10:40;;;;;;;13.93;12.02;;;18.30;85.70;;;;;;5120311;27;20058;-81
2023/09/28 01:13:11;;;;;;;15.63;11.88;;;18.30;85.70;;;;;;5136609;27;20386;-81
2023/09/28 01:15:46;;;;;;;14.20;11.75;;;18.30;85.90;;;;;;5136712;27;20506;-80
2023/09/28 01:18:16;;;;;;;13.30;12.10;;;18.20;85.90;;;;;;5154296;27;20047;-79
2023/09/28 01:20:44;;;;;;;14.88;11.55;;;18.20;85.90;;;;;;5120858;27;20390;-82
2023/09/28 01:23:10;;;;;;;13.43;12.02;;;18.20;86.00;;;;;;5152846;27;20062;-79
2023/09/28 01:25:37;;;;;;;12.40;11.18;;;18.20;85.90;;;;;;5153390;27;20034;-79
2023/09/28 01:28:04;;;;;;;14.23;12.30;;;18.10;86.20;;;;;;5153141;27;20469;-81
2023/09/28 01:30:30;;;;;;;13.65;12.35;;;18.00;86.50;;;;;;5153558;27;20035;-81
2023/09/28 01:32:56;;;;;;;16.40;13.40;;;18.10;86.30;;;;;;5122211;27;20508;-81
2023/09/28 01:35:22;;;;;;;16.10;13.15;;;18.00;86.70;;;;;;5140031;27;20125;-81
2023/09/28 01:37:55;;;;;;;15.90;12.75;;;18.00;86.90;;;;;;5140010;27;20115;-81
2023/09/28 01:40:20;;;;;;;13.45;12.05;;;17.90;86.90;;;;;;5139721;27;20046;-82
2023/09/28 01:42:46;;;;;;;13.25;11.85;;;17.90;87.00;;;;;;5158544;27;20046;-81
2023/09/28 01:45:12;;;;;;;13.80;12.55;;;17.90;87.10;;;;;;5161915;27;20035;-80
2023/09/28 01:47:38;;;;;;;13.75;12.35;;;17.80;87.10;;;;;;5144742;27;20039;-81
2023/09/28 01:50:04;;;;;;;13.63;12.25;;;17.80;87.40;;;;;;5161831;27;20042;-81
2023/09/28 01:52:30;;;;;;;13.27;11.88;;;17.80;87.40;;;;;;5161993;27;20039;-78
2023/09/28 01:54:56;;;;;;;15.75;12.77;;;17.70;87.50;;;;;;5126891;27;20045;-81
2023/09/28 01:57:21;;;;;;;12.85;11.50;;;17.70;87.60;;;;;;5144829;27;20074;-81
2023/09/28 01:59:47;;;;;;;11.80;10.68;;;17.70;87.60;;;;;;5128675;27;20065;-80
2023/09/28 02:02:15;;;;;;;14.25;11.55;;;17.70;87.70;;;;;;5144626;27;20039;-80
2023/09/28 02:04:41;;;;;;;12.63;11.27;;;17.70;87.70;;;;;;5127125;27;20038;-78
2023/09/28 02:07:06;;;;;;;11.93;10.60;;;17.70;87.70;;;;;;5140332;27;20083;-80
2023/09/28 02:09:33;;;;;;;12.10;10.30;;;17.70;87.40;;;;;;5106000;27;20046;-81
2023/09/28 02:12:00;;;;;;;11.52;10.43;;;17.60;87.80;;;;;;5140058;27;20137;-78
2023/09/28 02:14:26;;;;;;;11.57;9.88;;;17.60;88.10;;;;;;5139998;27;20039;-80
2023/09/28 02:16:52;;;;;;;12.98;9.52;;;17.60;87.80;;;;;;5157085;27;20047;-82
2023/09/28 02:19:18;;;;;;;13.45;9.18;;;17.60;87.80;;;;;;5156371;27;20038;-82
2023/09/28 02:21:43;;;;;;;10.70;9.23;;;17.60;88.40;;;;;;5121822;27;20038;-80
2023/09/28 02:24:10;;;;;;;9.88;8.38;;;17.50;88.50;;;;;;5138732;27;20043;-82
2023/09/28 02:26:36;;;;;;;9.00;8.10;;;17.50;89.00;;;;;;5121754;27;20045;-80
2023/09/28 02:29:02;;;;;;;9.07;8.25;;;17.50;89.50;;;;;;5138763;27;20047;-79
2023/09/28 02:31:28;;;;;;;11.63;8.07;;;17.60;89.60;;;;;;5121429;27;20095;-81
2023/09/28 02:33:54;;;;;;;9.75;8.38;;;17.60;90.00;;;;;;5138583;27;20043;-81
2023/09/28 02:36:20;;;;;;;10.35;8.27;;;17.60;89.60;;;;;;5138548;27;20041;-81
2023/09/28 02:38:47;;;;;;;9.52;8.40;;;17.60;89.60;;;;;;5155695;27;20043;-79
2023/09/28 02:41:20;;;;;;;11.65;8.15;;;17.60;89.70;;;;;;5138374;27;20039;-78
2023/09/28 02:43:46;;;;;;;10.30;8.13;;;17.60;89.80;;;;;;5138094;27;20049;-81
2023/09/28 02:46:12;;;;;;;12.00;8.63;;;17.60;89.50;;;;;;5121209;27;20039;-81
2023/09/28 02:48:38;;;;;;;10.32;7.65;;;17.60;89.60;;;;;;5138281;27;20471;-78
2023/09/28 02:51:04;;;;;;;11.90;7.68;;;17.60;89.50;;;;;;5155505;27;20046;-80
2023/09/28 02:53:30;;;;;;;9.50;8.25;;;17.60;89.60;;;;;;5138184;27;20383;-80
2023/09/28 02:55:56;;;;;;;11.05;7.55;;;17.60;89.70;;;;;;5138485;27;20038;-81
2023/09/28 02:58:24;;;;;;;8.93;8.02;;;17.50;90.10;;;;;;5138353;27;20102;-81
2023/09/28 03:00:52;;;;;;;11.55;7.80;;;17.50;90.00;;;;;;5137973;27;20046;-80
2023/09/28 03:03:17;;;;;;;11.88;8.30;;;17.50;90.10;;;;;;5155385;27;20039;-79
2023/09/28 03:05:43;;;;;;;8.70;7.45;;;17.50;89.80;;;;;;5137973;27;20057;-81
2023/09/28 03:08:12;;;;;;;12.20;7.60;;;17.40;90.10;;;;;;5137992;27;20050;-81
2023/09/28 03:10:41;;;;;;;10.45;7.90;;;17.40;90.30;;;;;;5121132;27;20074;-80
2023/09/28 03:13:11;;;;;;;10.05;7.55;;;17.40;90.80;;;;;;5120751;27;20123;-81
2023/09/28 03:15:40;;;;;;;8.30;7.50;;;17.40;91.20;;;;;;5155106;27;20039;-80
2023/09/28 03:18:06;;;;;;;9.05;7.25;;;17.30;90.60;;;;;;5138024;27;20505;-81
2023/09/28 03:20:32;;;;;;;10.48;7.93;;;17.40;90.40;;;;;;5137754;27;20038;-80
2023/09/28 03:22:58;;;;;;;9.15;8.13;;;17.30;90.70;;;;;;5137705;27;20035;-80
2023/09/28 03:25:24;;;;;;;10.85;7.85;;;17.30;91.00;;;;;;5120393;27;20398;-81
2023/09/28 03:27:51;;;;;;;11.32;8.13;;;17.30;91.00;;;;;;5155087;27;20492;-80
2023/09/28 03:30:20;;;;;;;10.20;8.82;;;17.30;90.80;;;;;;5137523;27;20117;-81
2023/09/28 03:32:47;;;;;;;11.23;8.13;;;17.30;91.00;;;;;;5137558;27;20034;-79
2023/09/28 03:35:13;;;;;;;10.35;8.48;;;17.30;91.30;;;;;;5120425;27;20490;-81
2023/09/28 03:37:40;;;;;;;12.43;7.60;;;17.30;91.40;;;;;;5154825;27;20046;-80
2023/09/28 03:40:10;;;;;;;10.40;8.63;;;17.30;91.80;;;;;;5120054;27;20467;-80
2023/09/28 03:42:38;;;;;;;11.48;7.82;;;17.30;91.90;;;;;;5137147;27;20097;-80
2023/09/28 03:45:04;;;;;;;11.05;7.93;;;17.30;92.00;;;;;;5137627;27;20046;-80
2023/09/28 03:47:32;;;;;;;10.85;7.90;;;17.30;92.30;;;;;;5137219;27;20504;-80
2023/09/28 03:49:57;;;;;;;14.00;8.95;;;17.20;92.40;;;;;;5136956;27;20042;-80
2023/09/28 03:52:23;;;;;;;14.23;8.13;;;17.20;92.20;;;;;;5120370;27;20039;-81
2023/09/28 03:54:49;;;;;;;14.13;9.07;;;17.20;92.40;;;;;;5154462;27;20045;-79
2023/09/28 03:57:15;;;;;;;12.82;9.00;;;17.20;92.20;;;;;;5120001;27;20494;-82
2023/09/28 03:59:41;;;;;;;10.75;8.35;;;17.10;92.60;;;;;;5119816;27;20046;-81
2023/09/28 04:02:06;;;;;;;13.57;8.80;;;17.10;92.50;;;;;;5154084;27;20038;-81
2023/09/28 04:04:32;;;;;;;12.23;9.10;;;17.00;92.70;;;;;;5136832;27;20126;-80
2023/09/28 04:06:58;;;;;;;10.88;8.57;;;17.00;93.00;;;;;;5119629;27;20039;-81
2023/09/28 04:09:23;;;;;;;11.82;9.05;;;17.00;93.50;;;;;;5119610;27;20070;-82
2023/09/28 04:11:49;;;;;;;12.80;9.15;;;17.00;93.20;;;;;;5154439;27;20115;-80
2023/09/28 04:14:15;;;;;;;13.13;10.02;;;17.00;92.70;;;;;;5119984;27;20185;-81
2023/09/28 04:16:41;;;;;;;15.48;9.85;;;17.00;93.00;;;;;;5154020;27;20035;-79
2023/09/28 04:19:10;;;;;;;13.50;7.50;;;17.00;93.20;;;;;;5143875;27;20034;-80
2023/09/28 04:21:36;;;;;;;10.98;6.70;;;17.00;93.20;;;;;;5130920;27;20543;-82
2023/09/28 04:24:03;;;;;;;13.63;6.60;;;17.00;92.70;;;;;;5137406;27;20421;-81
2023/09/28 04:26:28;;;;;;;12.13;4.93;;;17.00;92.20;;;;;;5136941;27;20043;-78
2023/09/28 04:28:54;;;;;;;8.85;5.03;;;17.10;91.50;;;;;;5136837;27;20107;-81
2023/09/28 04:31:20;;;;;;;13.45;4.10;;;17.10;90.90;;;;;;5136272;27;20035;-80
2023/09/28 04:33:45;;;;;;;11.18;4.05;;;17.20;90.40;;;;;;5136370;27;20042;-79
2023/09/28 04:36:12;;;;;;;14.15;4.10;;;17.20;89.60;;;;;;5134668;27;20196;-80
2023/09/28 04:38:38;;;;;;;15.48;3.70;;;17.20;89.10;;;;;;5118565;27;20038;-79
2023/09/28 04:41:04;;;;;;;18.15;4.95;;;17.20;88.90;;;;;;5117741;27;20039;-81
2023/09/28 04:43:30;;;;;;;17.42;4.32;;;17.20;88.70;;;;;;5116312;27;20388;-80
2023/09/28 04:45:55;;;;;;;14.05;3.78;;;17.10;88.60;;;;;;5130410;27;20030;-82
2023/09/28 04:48:21;;;;;;;17.10;4.55;;;17.10;88.50;;;;;;5116231;27;20121;-79
2023/09/28 04:50:47;;;;;;;16.27;4.22;;;17.00;88.50;;;;;;5136594;27;20087;-83
2023/09/28 04:53:13;;;;;;;16.33;4.45;;;17.00;88.00;;;;;;5118662;27;20436;-79
2023/09/28 04:55:38;;;;;;;13.45;3.80;;;17.00;88.30;;;;;;5153535;27;20039;-81
2023/09/28 04:58:05;;;;;;;17.30;4.45;;;16.90;88.50;;;;;;5135926;27;20143;-79
2023/09/28 05:00:32;;;;;;;15.15;4.60;;;16.90;88.40;;;;;;5136086;27;20037;-79
2023/09/28 05:03:01;;;;;;;20.48;4.93;;;16.80;88.70;;;;;;5130077;27;20461;-80
2023/09/28 05:05:27;;;;;;;17.75;4.40;;;16.60;88.80;;;;;;5136340;27;20038;-81
2023/09/28 05:07:53;;;;;;;19.40;4.53;;;16.60;88.80;;;;;;5141116;27;20035;-81
2023/09/28 05:10:18;;;;;;;16.80;4.43;;;16.50;89.20;;;;;;5120848;27;20146;-81
2023/09/28 05:12:44;;;;;;;25.52;5.05;;;16.50;89.20;;;;;;5103614;27;20043;-78
2023/09/28 05:15:10;;;;;;;16.75;4.95;;;16.40;89.30;;;;;;5120301;27;20126;-81
2023/09/28 05:17:36;;;;;;;20.20;5.53;;;16.40;89.40;;;;;;5086039;27;20047;-81
2023/09/28 05:20:04;;;;;;;22.85;4.55;;;16.30;89.40;;;;;;5119785;27;20039;-81
2023/09/28 05:22:30;;;;;;;21.35;4.40;;;16.20;89.70;;;;;;5120502;27;20043;-81
2023/09/28 05:24:56;;;;;;;17.17;4.03;;;16.20;89.60;;;;;;5136847;27;20069;-82
2023/09/28 05:27:22;;;;;;;20.60;4.10;;;16.10;89.60;;;;;;5136485;27;20477;-82
2023/09/28 05:29:48;;;;;;;22.90;4.43;;;16.10;89.90;;;;;;5119815;27;20122;-80
2023/09/28 05:32:14;;;;;;;20.75;4.43;;;16.10;89.80;;;;;;5119541;27;20074;-81
2023/09/28 05:34:40;;;;;;;25.92;5.57;;;16.10;89.80;;;;;;5119573;27;20074;-81
2023/09/28 05:37:06;;;;;;;23.50;5.10;;;16.10;89.90;;;;;;5136333;27;20046;-80
2023/09/28 05:39:31;;;;;;;25.35;5.10;;;16.10;89.70;;;;;;5102564;27;20039;-79
2023/09/28 05:41:57;;;;;;;25.23;5.07;;;16.10;90.10;;;;;;5102408;27;20111;-83
2023/09/28 05:44:23;;;;;;;21.60;5.43;;;16.00;89.90;;;;;;5119391;27;20027;-82
2023/09/28 05:46:49;;;;;;;27.15;6.55;;;16.10;89.70;;;;;;5101962;27;20496;-82
2023/09/28 05:49:16;;;;;;;25.60;5.95;;;16.10;89.70;;;;;;5101569;27;20116;-81
2023/09/28 05:51:42;;;;;;;23.70;5.32;;;16.10;89.80;;;;;;5118937;27;20390;-82
2023/09/28 05:54:07;;;;;;;20.33;4.55;;;16.00;89.80;;;;;;5085207;27;20124;-81
2023/09/28 05:56:33;;;;;;;24.55;4.82;;;16.00;89.90;;;;;;5101952;27;20039;-81
2023/09/28 05:58:59;;;;;;;20.10;5.10;;;16.00;90.30;;;;;;5118894;27;20062;-81
2023/09/28 06:01:29;;;;;;;26.67;5.65;;;16.00;90.20;;;;;;5122420;27;20066;-79
2023/09/28 06:03:55;;;;;;;33.00;6.35;;;16.00;90.20;;;;;;5156167;27;20035;-81
2023/09/28 06:06:22;;;;;;;26.33;5.60;;;16.00;90.10;;;;;;5139718;27;20041;-82
2023/09/28 06:08:50;;;;;;;24.45;5.30;;;16.10;90.20;;;;;;5138499;27;20027;-81
2023/09/28 06:11:17;;;;;;;27.20;5.63;;;16.10;90.00;;;;;;5116365;27;20035;-82
2023/09/28 06:13:44;;;;;;;26.02;5.93;;;16.10;90.40;;;;;;5138395;27;20035;-81
2023/09/28 06:16:14;;;;;;;26.23;6.05;;;16.10;90.30;;;;;;5138648;27;20444;-81
2023/09/28 06:18:41;;;;;;;22.60;5.72;;;16.10;90.40;;;;;;5134569;27;20030;-82
2023/09/28 06:21:07;;;;;;;23.67;5.10;;;16.20;90.40;;;;;;5138773;27;20038;-82
2023/09/28 06:23:35;;;;;;;25.45;6.38;;;16.20;90.60;;;;;;5138162;27;20058;-81
2023/09/28 06:26:04;;;;;;;25.40;5.30;;;16.20;90.50;;;;;;5135744;27;20087;-82
2023/09/28 06:28:29;;;;;;;27.92;7.32;;;16.30;90.50;;;;;;5121192;27;20151;-81
2023/09/28 06:30:55;;;;;;;27.08;5.55;;;16.40;90.20;;;;;;5120492;27;20117;-80
2023/09/28 06:33:23;;;;;;;34.83;5.75;;;16.40;90.10;;;;;;5155499;27;20034;-81
2023/09/28 06:35:49;;;;;;;23.77;6.20;;;16.40;90.20;;;;;;5138132;27;20123;-81
2023/09/28 06:38:15;;;;;;;27.00;5.85;;;16.50;90.20;;;;;;5104320;27;20088;-80
2023/09/28 06:40:45;;;;;;;23.85;5.65;;;16.50;90.00;;;;;;5138137;27;20044;-82
2023/09/28 06:43:11;;;;;;;27.25;5.10;;;16.60;89.80;;;;;;5138056;27;20043;-78
2023/09/28 06:45:37;;;;;;;29.67;6.35;;;16.60;89.70;;;;;;5138702;27;20057;-81
2023/09/28 06:48:03;;;;;;;23.83;6.25;;;16.60;89.60;;;;;;5104187;27;20037;-82
2023/09/28 06:50:29;;;;;;;25.88;5.90;;;16.70;89.50;;;;;;5138603;27;20062;-81
2023/09/28 06:52:55;;;;;;;24.90;5.20;;;16.70;89.40;;;;;;5120867;27;20056;-82
2023/09/28 06:55:23;;;;;;;31.90;7.05;;;16.80;89.40;;;;;;5119861;27;20035;-80
2023/09/28 06:57:50;;;;;;;26.42;6.03;;;16.80;89.40;;;;;;5138081;27;20038;-80
2023/09/28 07:00:17;;;;;;;27.40;6.00;;;16.90;89.30;;;;;;5134949;27;20080;-79
2023/09/28 07:02:47;;;;;;;27.00;5.88;;;16.90;89.10;;;;;;5120825;27;20039;-81
2023/09/28 07:05:14;;;;;;;27.20;5.85;;;16.90;89.00;;;;;;5154999;27;20046;-81
2023/09/28 07:07:42;;;;;;;33.80;6.95;;;17.00;89.00;;;;;;5137529;27;20027;-81
2023/09/28 07:10:10;;;;;;;24.23;6.50;;;17.00;89.00;;;;;;5154962;27;20409;-78
2023/09/28 07:12:35;;;;;;;24.48;5.28;;;17.10;88.80;;;;;;5137746;27;20043;-81
2023/09/28 07:15:02;;;;;;;32.97;5.90;;;17.10;88.90;;;;;;5154740;27;20038;-81
2023/09/28 07:17:27;;;;;;;23.33;6.18;;;17.10;88.80;;;;;;5120627;27;20048;-81
2023/09/28 07:19:53;;;;;;;28.58;5.97;;;17.20;88.70;;;;;;5137067;27;20042;-82
2023/09/28 07:22:21;;;;;;;24.45;5.43;;;17.20;88.50;;;;;;5137422;27;20482;-81
2023/09/28 07:24:47;;;;;;;26.38;6.20;;;17.30;88.30;;;;;;5137339;27;20051;-82
2023/09/28 07:27:13;;;;;;;26.65;5.75;;;17.30;88.40;;;;;;5137150;27;20391;-81
2023/09/28 07:29:38;;;;;;;26.52;6.13;;;17.40;88.20;;;;;;5137130;27;20037;-81
2023/09/28 07:32:06;;;;;;;35.25;6.22;;;17.40;87.80;;;;;;5137771;27;20039;-82
2023/09/28 07:34:32;;;;;;;29.85;5.57;;;17.40;87.90;;;;;;5116933;27;20394;-82
2023/09/28 07:36:58;;;;;;;25.58;5.20;;;17.50;87.70;;;;;;5099826;27;20091;-82
2023/09/28 07:39:23;;;;;;;24.05;5.50;;;17.50;87.50;;;;;;5116823;27;20034;-82
2023/09/28 07:41:51;;;;;;;22.35;4.95;;;17.50;87.30;;;;;;5116626;27;20502;-83
2023/09/28 07:44:19;;;;;;;24.85;6.35;;;17.50;87.20;;;;;;5117032;27;20039;-82
2023/09/28 07:46:45;;;;;;;21.85;4.72;;;17.60;86.80;;;;;;5116953;27;20039;-81
2023/09/28 07:49:12;;;;;;;27.02;7.13;;;17.60;85.90;;;;;;5116531;27;20071;-81
2023/09/28 07:51:39;;;;;;;25.08;5.57;;;17.70;86.20;;;;;;5133587;27;20122;-82
2023/09/28 07:54:05;;;;;;;21.92;4.95;;;17.70;85.60;;;;;;5100263;27;20126;-82
2023/09/28 07:56:31;;;;;;;23.35;4.55;;;17.80;85.80;;;;;;5116964;27;20463;-82
2023/09/28 07:58:57;;;;;;;25.08;4.68;;;17.80;85.50;;;;;;5099533;27;20133;-82
2023/09/28 08:01:25;;;;;;;27.10;5.50;;;17.80;85.50;;;;;;5082839;27;20039;-82
2023/09/28 08:03:51;;;;;;;24.02;4.95;;;17.80;85.30;;;;;;5116730;27;20050;-82
2023/09/28 08:06:17;;;;;;;19.00;4.88;;;17.90;85.10;;;;;;5099345;27;20035;-81
2023/09/28 08:08:42;;;;;;;23.63;5.93;;;18.00;85.00;;;;;;5116202;27;20046;-82
2023/09/28 08:11:08;;;;;;;26.48;5.18;;;18.00;84.50;;;;;;5099217;27;20054;-82
2023/09/28 08:13:34;;;;;;;19.45;5.10;;;18.00;84.60;;;;;;5100227;27;20039;-81
2023/09/28 08:16:00;;;;;;;21.38;4.65;;;18.10;84.30;;;;;;5102384;27;20039;-82
2023/09/28 08:18:26;;;;;;;23.50;4.50;;;18.10;84.40;;;;;;5085678;27;20149;-81
2023/09/28 08:20:51;;;;;;;31.52;5.57;;;18.20;83.90;;;;;;5119696;27;20039;-82
2023/09/28 08:23:18;;;;;;;19.88;4.85;;;18.20;83.70;;;;;;5102679;27;20035;-81
2023/09/28 08:25:44;;;;;;;16.48;4.45;;;18.20;83.90;;;;;;5136831;27;20050;-82
2023/09/28 08:28:10;;;;;;;17.60;5.32;;;18.30;83.30;;;;;;5102814;27;20478;-82
2023/09/28 08:30:36;;;;;;;20.48;4.60;;;18.30;82.60;;;;;;5119369;27;20059;-81
2023/09/28 08:33:02;;;;;;;20.40;4.65;;;18.40;81.90;;;;;;5119834;27;20081;-81
2023/09/28 08:35:27;;;;;;;20.25;4.93;;;18.40;82.00;;;;;;5118720;27;20549;-82
2023/09/28 08:37:53;;;;;;;17.02;4.78;;;18.40;81.20;;;;;;5101929;27;20038;-83
2023/09/28 08:40:20;;;;;;;21.50;5.47;;;18.40;81.70;;;;;;5102793;27;20042;-82
2023/09/28 08:42:47;;;;;;;23.65;5.43;;;18.50;81.10;;;;;;5118759;27;20035;-82
2023/09/28 08:45:15;;;;;;;25.02;5.22;;;18.40;81.20;;;;;;5119123;27;20126;-82
2023/09/28 08:47:48;;;;;;;29.50;5.18;;;18.40;81.10;;;;;;5119601;27;20038;-82
2023/09/28 08:50:22;;;;;;;18.80;5.10;;;18.40;81.20;;;;;;5136117;27;20046;-81
2023/09/28 08:52:48;;;;;;;23.65;5.97;;;18.40;81.10;;;;;;5136384;27;20038;-81
2023/09/28 08:55:15;;;;;;;18.77;4.53;;;18.40;81.20;;;;;;5102266;27;20046;-81
2023/09/28 08:57:43;;;;;;;20.48;5.20;;;18.50;81.40;;;;;;5136178;27;20042;-82
2023/09/28 09:00:13;;;;;;;20.88;5.43;;;18.50;81.50;;;;;;5102151;27;20175;-82
2023/09/28 09:02:42;;;;;;;20.77;5.32;;;18.40;81.10;;;;;;5118900;27;20574;-83
2023/09/28 09:05:11;;;;;;;23.90;5.72;;;18.40;80.80;;;;;;5119286;27;20039;-81
2023/09/28 09:07:38;;;;;;;28.08;5.80;;;18.50;81.00;;;;;;5119376;27;20042;-82
2023/09/28 09:10:06;;;;;;;29.40;6.70;;;18.50;81.10;;;;;;5119109;27;20031;-82
2023/09/28 09:12:34;;;;;;;20.08;4.13;;;18.40;81.10;;;;;;5102432;27;20394;-82
2023/09/28 09:15:00;;;;;;;18.30;5.78;;;18.50;80.90;;;;;;5135962;27;20520;-81
2023/09/28 09:17:35;;;;;;;20.17;4.80;;;18.40;81.30;;;;;;5118913;27;20122;-82
2023/09/28 09:20:05;;;;;;;18.77;5.38;;;18.50;81.20;;;;;;5135898;27;20126;-81
2023/09/28 09:22:30;;;;;;;17.27;4.68;;;18.50;81.00;;;;;;5119266;27;20443;-81
2023/09/28 09:25:00;;;;;;;20.02;4.22;;;18.50;80.20;;;;;;5118651;27;20050;-82
2023/09/28 09:27:30;;;;;;;18.00;4.10;;;18.50;79.90;;;;;;5102535;27;20386;-82
2023/09/28 09:30:08;;;;;;;21.52;5.15;;;18.60;79.60;;;;;;5101938;27;20075;-82
2023/09/28 09:32:35;;;;;;;19.80;4.30;;;18.70;80.10;;;;;;5119049;27;20111;-81
2023/09/28 09:35:02;;;;;;;21.95;6.03;;;18.70;80.20;;;;;;5101922;27;20039;-82
2023/09/28 09:37:28;;;;;;;22.42;4.97;;;18.80;80.40;;;;;;5135690;27;20042;-81
2023/09/28 09:40:12;;;;;;;23.27;5.35;;;18.80;80.00;;;;;;5135699;27;20038;-81
2023/09/28 09:42:37;;;;;;;16.90;4.97;;;18.90;80.50;;;;;;5135932;27;20062;-81
2023/09/28 09:45:05;;;;;;;16.20;4.05;;;18.90;79.80;;;;;;5135995;27;20039;-81
2023/09/28 09:47:31;;;;;;;15.32;3.67;;;19.00;79.50;;;;;;5102137;27;20034;-81
2023/09/28 09:49:57;;;;;;;20.88;4.50;;;19.00;78.80;;;;;;5119072;27;20031;-82
2023/09/28 09:52:25;;;;;;;17.52;4.75;;;19.00;79.20;;;;;;5103020;27;20046;-80
2023/09/28 09:54:51;;;;;;;19.88;4.32;;;19.00;79.10;;;;;;5105684;27;20543;-81
2023/09/28 09:57:20;;;;;;;21.13;4.50;;;18.90;78.30;;;;;;5105823;27;20038;-81
2023/09/28 09:59:49;;;;;;;21.73;4.45;;;18.90;78.70;;;;;;5139522;27;20494;-81
2023/09/28 10:02:26;;;;;;;20.10;4.70;;;18.90;78.50;;;;;;5105637;27;20389;-80
2023/09/28 10:04:56;;;;;;;21.20;5.25;;;18.90;78.80;;;;;;5105240;27;20487;-82
2023/09/28 10:07:33;;;;;;;23.52;5.63;;;18.90;78.90;;;;;;5122331;27;20035;-81
2023/09/28 10:09:59;;;;;;;17.65;4.63;;;19.00;78.70;;;;;;5122022;27;20042;-81
2023/09/28 10:12:30;;;;;;;23.55;4.72;;;18.90;79.00;;;;;;5121850;27;20096;-81
2023/09/28 10:15:00;;;;;;;20.85;4.60;;;18.90;79.20;;;;;;5139032;27;20091;-81
2023/09/28 10:17:28;;;;;;;24.58;5.43;;;18.90;78.90;;;;;;5122871;27;20051;-81
2023/09/28 10:19:59;;;;;;;17.55;5.53;;;18.90;78.40;;;;;;5122026;27;20130;-80
2023/09/28 10:22:25;;;;;;;18.75;4.00;;;18.90;78.70;;;;;;5138811;27;20045;-81
2023/09/28 10:24:50;;;;;;;15.60;4.88;;;19.00;78.70;;;;;;5138594;27;20054;-81
2023/09/28 10:27:17;;;;;;;18.65;3.78;;;18.90;78.30;;;;;;5138766;27;20065;-81
2023/09/28 10:29:44;;;;;;;19.55;4.38;;;19.00;78.40;;;;;;5104684;27;20070;-82
2023/09/28 10:32:29;;;;;;;18.60;4.57;;;19.00;78.70;;;;;;5121888;27;20043;-80
2023/09/28 10:35:20;;;;;;;22.42;5.70;;;19.10;78.50;;;;;;5138842;27;20117;-82
2023/09/28 10:38:15;;;;;;;16.17;3.50;;;19.10;78.30;;;;;;5138543;27;20034;-82
2023/09/28 10:40:42;;;;;;;17.00;3.83;;;19.20;77.80;;;;;;5121503;27;20367;-82
2023/09/28 10:43:13;;;;;;;18.50;4.03;;;19.30;77.10;;;;;;5104485;27;20483;-80
2023/09/28 10:45:39;;;;;;;12.88;4.63;;;19.20;77.50;;;;;;5104646;27;20517;-81
2023/09/28 10:48:06;;;;;;;18.42;4.15;;;19.20;77.10;;;;;;5121354;27;20086;-81
2023/09/28 10:50:40;;;;;;;16.10;5.03;;;19.30;77.40;;;;;;5121186;27;20027;-81
2023/09/28 10:53:05;;;;;;;17.92;4.95;;;19.30;77.60;;;;;;5138353;27;20042;-81
2023/09/28 10:55:31;;;;;;;20.08;4.90;;;19.40;77.40;;;;;;5104262;27;20035;-81
2023/09/28 10:58:04;;;;;;;17.42;3.65;;;19.40;77.20;;;;;;5138515;27;20034;-81
2023/09/28 11:00:32;;;;;;;19.33;4.50;;;19.40;77.50;;;;;;5121358;27;20420;-81
2023/09/28 11:02:58;;;;;;;20.30;5.38;;;19.30;77.70;;;;;;5120940;27;20066;-81
2023/09/28 11:05:25;;;;;;;17.88;4.90;;;19.40;77.60;;;;;;5120855;27;20084;-80
2023/09/28 11:07:51;;;;;;;18.60;4.10;;;19.40;77.60;;;;;;5121209;27;20038;-80
2023/09/28 11:10:17;;;;;;;24.73;3.90;;;19.50;77.40;;;;;;5121278;27;20034;-81
2023/09/28 11:12:44;;;;;;;22.83;4.60;;;19.50;77.20;;;;;;5121358;27;20046;-79
2023/09/28 11:15:14;;;;;;;18.85;3.80;;;19.40;76.80;;;;;;5138530;27;20071;-80
2023/09/28 11:17:40;;;;;;;15.02;4.10;;;19.40;76.70;;;;;;5121200;27;20038;-80
2023/09/28 11:20:11;;;;;;;16.67;3.78;;;19.40;76.60;;;;;;5121210;27;20042;-81
2023/09/28 11:22:36;;;;;;;17.70;4.05;;;19.40;76.10;;;;;;5120967;27;20070;-80
2023/09/28 11:25:03;;;;;;;15.10;3.90;;;19.40;76.20;;;;;;5137997;27;20082;-81
2023/09/28 11:27:29;;;;;;;16.63;4.45;;;19.40;76.40;;;;;;5137963;27;20047;-82
2023/09/28 11:29:59;;;;;;;14.20;3.55;;;19.40;76.40;;;;;;5120716;27;20031;-80
2023/09/28 11:32:25;;;;;;;18.02;4.32;;;19.50;75.00;;;;;;5104065;27;20075;-81
2023/09/28 11:34:53;;;;;;;14.40;3.83;;;19.50;75.40;;;;;;5120999;27;20042;-80
2023/09/28 11:37:23;;;;;;;17.45;4.93;;;19.50;75.20;;;;;;5120941;27;20054;-81
2023/09/28 11:39:49;;;;;;;12.73;3.10;;;19.40;75.60;;;;;;5120691;27;20043;-82
2023/09/28 11:42:14;;;;;;;15.27;4.43;;;19.40;75.60;;;;;;5120664;27;20091;-81
2023/09/28 11:44:42;;;;;;;14.88;3.28;;;19.40;75.50;;;;;;5138011;27;20030;-80
2023/09/28 11:47:08;;;;;;;13.18;3.63;;;19.40;76.00;;;;;;5120654;27;20034;-80
2023/09/28 11:49:37;;;;;;;19.55;4.93;;;19.40;75.50;;;;;;5103404;27;20031;-82
2023/09/28 11:52:03;;;;;;;16.40;4.07;;;19.30;75.90;;;;;;5120538;27;20038;-81
2023/09/28 11:54:29;;;;;;;17.60;4.13;;;19.40;76.00;;;;;;5104158;27;20359;-80
2023/09/28 11:56:57;;;;;;;16.55;4.45;;;19.50;75.80;;;;;;5137619;27;20041;-81
2023/09/28 11:59:23;;;;;;;13.93;4.22;;;19.50;75.50;;;;;;5137561;27;20039;-82
2023/09/28 12:01:52;;;;;;;16.35;5.15;;;19.40;74.70;;;;;;5137872;27;20045;-83
2023/09/28 12:04:18;;;;;;;15.52;4.05;;;19.30;74.20;;;;;;5103518;27;20501;-83
2023/09/28 12:06:45;;;;;;;22.10;5.43;;;19.30;74.60;;;;;;5120473;27;20074;-81
2023/09/28 12:09:13;;;;;;;18.17;4.28;;;19.20;75.00;;;;;;5120168;27;20496;-82
2023/09/28 12:11:40;;;;;;;15.52;3.92;;;19.10;75.30;;;;;;5119829;27;20095;-81
2023/09/28 12:14:06;;;;;;;19.38;4.90;;;19.00;75.80;;;;;;5103104;27;20537;-81
2023/09/28 12:16:32;;;;;;;19.42;4.82;;;19.00;75.90;;;;;;5119114;27;20115;-84
2023/09/28 12:18:58;;;;;;;15.02;3.78;;;19.10;74.90;;;;;;5102972;27;20085;-81
2023/09/28 12:21:24;;;;;;;13.35;3.78;;;19.10;74.10;;;;;;5119617;27;20115;-83
2023/09/28 12:23:50;;;;;;;16.42;4.30;;;19.20;73.70;;;;;;5102290;27;20050;-82
2023/09/28 12:26:17;;;;;;;18.40;4.57;;;19.20;74.40;;;;;;5102923;27;20035;-82
2023/09/28 12:28:43;;;;;;;16.65;3.63;;;19.20;74.50;;;;;;5128850;27;20094;-81
2023/09/28 12:31:09;;;;;;;16.67;4.57;;;19.30;74.30;;;;;;5128005;27;20401;-81
2023/09/28 12:33:38;;;;;;;14.82;3.65;;;19.40;73.50;;;;;;5113442;27;20038;-81
2023/09/28 12:36:05;;;;;;;18.40;4.47;;;19.40;73.40;;;;;;5148076;27;20045;-81